sensor_id;sensor_type;location;lat;lon;timestamp;P1;durP1;ratioP1;P2;durP2;ratioP2
66298;SDS011;53098;47.658;8.578;2024-01-10T00:00:45;31.77;;;15.15;;
66298;SDS011;53098;47.658;8.578;2024-01-10T00:03:11;32.00;;;15.67;;
66298;SDS011;53098;47.658;8.578;2024-01-10T00:05:36;30.90;;;15.07;;
66298;SDS011;53098;47.658;8.578;2024-01-10T00:08:01;29.60;;;15.73;;
66298;SDS011;53098;47.658;8.578;2024-01-10T00:10:27;33.50;;;15.63;;
66298;SDS011;53098;47.658;8.578;2024-01-10T00:12:52;36.77;;;16.57;;
66298;SDS011;53098;47.658;8.578;2024-01-10T00:15:17;31.17;;;14.73;;
66298;SDS011;53098;47.658;8.578;2024-01-10T00:17:42;32.87;;;14.70;;
66298;SDS011;53098;47.658;8.578;2024-01-10T00:20:08;29.73;;;14.77;;
66298;SDS011;53098;47.658;8.578;2024-01-10T00:22:33;34.85;;;15.93;;
66298;SDS011;53098;47.658;8.578;2024-01-10T00:24:58;34.57;;;16.37;;
66298;SDS011;53098;47.658;8.578;2024-01-10T00:27:24;32.47;;;16.27;;
66298;SDS011;53098;47.658;8.578;2024-01-10T00:29:49;32.53;;;15.63;;
66298;SDS011;53098;47.658;8.578;2024-01-10T00:32:14;38.35;;;16.17;;
66298;SDS011;53098;47.658;8.578;2024-01-10T00:34:40;32.37;;;15.13;;
66298;SDS011;53098;47.658;8.578;2024-01-10T00:37:05;32.90;;;15.70;;
66298;SDS011;53098;47.658;8.578;2024-01-10T00:39:30;34.87;;;15.97;;
66298;SDS011;53098;47.658;8.578;2024-01-10T00:41:55;36.97;;;15.87;;
66298;SDS011;53098;47.658;8.578;2024-01-10T00:44:20;30.80;;;14.97;;
66298;SDS011;53098;47.658;8.578;2024-01-10T00:46:46;30.83;;;15.57;;
66298;SDS011;53098;47.658;8.578;2024-01-10T00:49:11;35.03;;;15.63;;
66298;SDS011;53098;47.658;8.578;2024-01-10T00:51:36;30.37;;;14.70;;
66298;SDS011;53098;47.658;8.578;2024-01-10T00:54:01;29.63;;;14.67;;
66298;SDS011;53098;47.658;8.578;2024-01-10T00:56:27;28.90;;;14.17;;
66298;SDS011;53098;47.658;8.578;2024-01-10T00:58:52;30.33;;;14.33;;
66298;SDS011;53098;47.658;8.578;2024-01-10T01:01:17;37.90;;;16.33;;
66298;SDS011;53098;47.658;8.578;2024-01-10T01:03:42;29.47;;;15.13;;
66298;SDS011;53098;47.658;8.578;2024-01-10T01:06:08;30.60;;;14.73;;
66298;SDS011;53098;47.658;8.578;2024-01-10T01:08:33;34.87;;;16.33;;
66298;SDS011;53098;47.658;8.578;2024-01-10T01:10:58;32.20;;;15.07;;
66298;SDS011;53098;47.658;8.578;2024-01-10T01:13:24;32.17;;;14.77;;
66298;SDS011;53098;47.658;8.578;2024-01-10T01:15:49;33.83;;;17.10;;
66298;SDS011;53098;47.658;8.578;2024-01-10T01:18:14;30.10;;;16.00;;
66298;SDS011;53098;47.658;8.578;2024-01-10T01:20:40;31.30;;;15.73;;
66298;SDS011;53098;47.658;8.578;2024-01-10T01:23:05;29.73;;;14.65;;
66298;SDS011;53098;47.658;8.578;2024-01-10T01:25:30;34.57;;;16.20;;
66298;SDS011;53098;47.658;8.578;2024-01-10T01:27:55;30.20;;;15.47;;
66298;SDS011;53098;47.658;8.578;2024-01-10T01:30:21;33.47;;;15.73;;
66298;SDS011;53098;47.658;8.578;2024-01-10T01:32:46;33.17;;;15.40;;
66298;SDS011;53098;47.658;8.578;2024-01-10T01:35:11;33.90;;;16.20;;
66298;SDS011;53098;47.658;8.578;2024-01-10T01:37:36;32.73;;;16.63;;
66298;SDS011;53098;47.658;8.578;2024-01-10T01:40:02;33.57;;;16.93;;
66298;SDS011;53098;47.658;8.578;2024-01-10T01:42:27;35.50;;;15.85;;
66298;SDS011;53098;47.658;8.578;2024-01-10T01:44:52;33.60;;;15.13;;
66298;SDS011;53098;47.658;8.578;2024-01-10T01:47:18;33.80;;;15.43;;
66298;SDS011;53098;47.658;8.578;2024-01-10T01:49:43;35.70;;;14.90;;
66298;SDS011;53098;47.658;8.578;2024-01-10T01:52:08;34.23;;;15.63;;
66298;SDS011;53098;47.658;8.578;2024-01-10T01:54:34;34.35;;;16.98;;
66298;SDS011;53098;47.658;8.578;2024-01-10T01:56:59;37.35;;;16.27;;
66298;SDS011;53098;47.658;8.578;2024-01-10T01:59:25;36.17;;;17.02;;
66298;SDS011;53098;47.658;8.578;2024-01-10T02:01:51;33.17;;;16.00;;
66298;SDS011;53098;47.658;8.578;2024-01-10T02:04:17;34.25;;;17.90;;
66298;SDS011;53098;47.658;8.578;2024-01-10T02:06:43;39.28;;;16.33;;
66298;SDS011;53098;47.658;8.578;2024-01-10T02:09:08;32.43;;;16.13;;
66298;SDS011;53098;47.658;8.578;2024-01-10T02:11:33;32.53;;;16.52;;
66298;SDS011;53098;47.658;8.578;2024-01-10T02:13:59;29.40;;;15.40;;
66298;SDS011;53098;47.658;8.578;2024-01-10T02:16:24;31.50;;;16.10;;
66298;SDS011;53098;47.658;8.578;2024-01-10T02:18:49;37.38;;;16.70;;
66298;SDS011;53098;47.658;8.578;2024-01-10T02:21:21;33.17;;;15.03;;
66298;SDS011;53098;47.658;8.578;2024-01-10T02:26:12;33.47;;;15.25;;
66298;SDS011;53098;47.658;8.578;2024-01-10T02:28:37;35.53;;;16.15;;
66298;SDS011;53098;47.658;8.578;2024-01-10T02:31:02;30.37;;;15.53;;
66298;SDS011;53098;47.658;8.578;2024-01-10T02:33:28;38.55;;;16.65;;
66298;SDS011;53098;47.658;8.578;2024-01-10T02:35:53;35.13;;;16.43;;
66298;SDS011;53098;47.658;8.578;2024-01-10T02:38:18;32.20;;;17.10;;
66298;SDS011;53098;47.658;8.578;2024-01-10T02:40:43;30.73;;;15.53;;
66298;SDS011;53098;47.658;8.578;2024-01-10T02:43:09;34.40;;;16.97;;
66298;SDS011;53098;47.658;8.578;2024-01-10T02:45:34;33.17;;;17.03;;
66298;SDS011;53098;47.658;8.578;2024-01-10T02:47:59;33.57;;;17.27;;
66298;SDS011;53098;47.658;8.578;2024-01-10T02:50:24;34.40;;;17.53;;
66298;SDS011;53098;47.658;8.578;2024-01-10T02:52:50;38.00;;;16.33;;
66298;SDS011;53098;47.658;8.578;2024-01-10T02:55:15;34.83;;;16.93;;
66298;SDS011;53098;47.658;8.578;2024-01-10T02:57:40;34.73;;;16.57;;
66298;SDS011;53098;47.658;8.578;2024-01-10T03:00:06;35.53;;;16.30;;
66298;SDS011;53098;47.658;8.578;2024-01-10T03:02:31;30.55;;;14.70;;
66298;SDS011;53098;47.658;8.578;2024-01-10T03:04:57;37.00;;;17.73;;
66298;SDS011;53098;47.658;8.578;2024-01-10T03:07:25;35.50;;;16.50;;
66298;SDS011;53098;47.658;8.578;2024-01-10T03:09:50;35.58;;;16.30;;
66298;SDS011;53098;47.658;8.578;2024-01-10T03:12:16;36.00;;;16.17;;
66298;SDS011;53098;47.658;8.578;2024-01-10T03:14:41;36.60;;;17.10;;
66298;SDS011;53098;47.658;8.578;2024-01-10T03:17:06;34.50;;;16.70;;
66298;SDS011;53098;47.658;8.578;2024-01-10T03:19:31;33.33;;;16.53;;
66298;SDS011;53098;47.658;8.578;2024-01-10T03:21:57;37.40;;;16.93;;
66298;SDS011;53098;47.658;8.578;2024-01-10T03:24:22;34.40;;;17.27;;
66298;SDS011;53098;47.658;8.578;2024-01-10T03:26:47;35.20;;;17.07;;
66298;SDS011;53098;47.658;8.578;2024-01-10T03:29:12;35.03;;;15.87;;
66298;SDS011;53098;47.658;8.578;2024-01-10T03:31:38;30.93;;;16.13;;
66298;SDS011;53098;47.658;8.578;2024-01-10T03:34:03;33.37;;;18.20;;
66298;SDS011;53098;47.658;8.578;2024-01-10T03:36:28;32.63;;;15.82;;
66298;SDS011;53098;47.658;8.578;2024-01-10T03:38:54;31.67;;;14.87;;
66298;SDS011;53098;47.658;8.578;2024-01-10T03:41:19;32.90;;;15.43;;
66298;SDS011;53098;47.658;8.578;2024-01-10T03:43:45;34.85;;;16.42;;
66298;SDS011;53098;47.658;8.578;2024-01-10T03:46:10;34.10;;;17.03;;
66298;SDS011;53098;47.658;8.578;2024-01-10T03:48:36;35.20;;;16.35;;
66298;SDS011;53098;47.658;8.578;2024-01-10T03:51:01;32.78;;;16.35;;
66298;SDS011;53098;47.658;8.578;2024-01-10T03:53:26;31.50;;;16.17;;
66298;SDS011;53098;47.658;8.578;2024-01-10T03:55:52;36.53;;;16.77;;
66298;SDS011;53098;47.658;8.578;2024-01-10T03:58:17;32.63;;;16.17;;
66298;SDS011;53098;47.658;8.578;2024-01-10T04:00:42;32.03;;;16.53;;
66298;SDS011;53098;47.658;8.578;2024-01-10T04:03:08;34.42;;;15.80;;
66298;SDS011;53098;47.658;8.578;2024-01-10T04:05:33;35.87;;;17.00;;
66298;SDS011;53098;47.658;8.578;2024-01-10T04:07:58;32.37;;;16.37;;
66298;SDS011;53098;47.658;8.578;2024-01-10T04:10:23;33.10;;;15.53;;
66298;SDS011;53098;47.658;8.578;2024-01-10T04:12:49;35.57;;;16.00;;
66298;SDS011;53098;47.658;8.578;2024-01-10T04:15:14;35.47;;;16.50;;
66298;SDS011;53098;47.658;8.578;2024-01-10T04:17:40;37.08;;;16.20;;
66298;SDS011;53098;47.658;8.578;2024-01-10T04:20:05;28.70;;;15.17;;
66298;SDS011;53098;47.658;8.578;2024-01-10T04:22:31;33.25;;;15.65;;
66298;SDS011;53098;47.658;8.578;2024-01-10T04:24:59;35.30;;;16.88;;
66298;SDS011;53098;47.658;8.578;2024-01-10T04:27:25;35.72;;;17.60;;
66298;SDS011;53098;47.658;8.578;2024-01-10T04:29:50;36.95;;;15.23;;
66298;SDS011;53098;47.658;8.578;2024-01-10T04:32:15;30.80;;;15.83;;
66298;SDS011;53098;47.658;8.578;2024-01-10T04:34:41;36.20;;;16.23;;
66298;SDS011;53098;47.658;8.578;2024-01-10T04:37:06;33.35;;;16.15;;
66298;SDS011;53098;47.658;8.578;2024-01-10T04:39:31;32.47;;;15.87;;
66298;SDS011;53098;47.658;8.578;2024-01-10T04:41:57;32.77;;;15.57;;
66298;SDS011;53098;47.658;8.578;2024-01-10T04:44:22;35.00;;;15.87;;
66298;SDS011;53098;47.658;8.578;2024-01-10T04:46:47;34.63;;;16.37;;
66298;SDS011;53098;47.658;8.578;2024-01-10T04:49:13;35.03;;;16.73;;
66298;SDS011;53098;47.658;8.578;2024-01-10T04:51:38;31.33;;;15.20;;
66298;SDS011;53098;47.658;8.578;2024-01-10T04:54:04;35.42;;;16.80;;
66298;SDS011;53098;47.658;8.578;2024-01-10T04:56:29;36.88;;;17.75;;
66298;SDS011;53098;47.658;8.578;2024-01-10T04:58:54;33.53;;;17.00;;
66298;SDS011;53098;47.658;8.578;2024-01-10T05:01:19;33.13;;;15.93;;
66298;SDS011;53098;47.658;8.578;2024-01-10T05:03:45;36.30;;;17.60;;
66298;SDS011;53098;47.658;8.578;2024-01-10T05:06:10;33.17;;;15.80;;
66298;SDS011;53098;47.658;8.578;2024-01-10T05:08:36;36.60;;;16.95;;
66298;SDS011;53098;47.658;8.578;2024-01-10T05:11:01;33.80;;;15.73;;
66298;SDS011;53098;47.658;8.578;2024-01-10T05:13:26;35.03;;;16.73;;
66298;SDS011;53098;47.658;8.578;2024-01-10T05:15:51;36.43;;;16.93;;
66298;SDS011;53098;47.658;8.578;2024-01-10T05:18:17;33.40;;;15.97;;
66298;SDS011;53098;47.658;8.578;2024-01-10T05:20:43;34.67;;;16.63;;
66298;SDS011;53098;47.658;8.578;2024-01-10T05:23:08;38.93;;;17.97;;
66298;SDS011;53098;47.658;8.578;2024-01-10T05:25:33;34.97;;;16.33;;
66298;SDS011;53098;47.658;8.578;2024-01-10T05:27:59;37.47;;;18.53;;
66298;SDS011;53098;47.658;8.578;2024-01-10T05:30:24;34.00;;;17.07;;
66298;SDS011;53098;47.658;8.578;2024-01-10T05:32:49;32.67;;;16.08;;
66298;SDS011;53098;47.658;8.578;2024-01-10T05:35:15;35.72;;;16.70;;
66298;SDS011;53098;47.658;8.578;2024-01-10T05:37:41;33.90;;;16.45;;
66298;SDS011;53098;47.658;8.578;2024-01-10T05:40:07;38.58;;;17.35;;
66298;SDS011;53098;47.658;8.578;2024-01-10T05:42:33;39.33;;;17.65;;
66298;SDS011;53098;47.658;8.578;2024-01-10T05:44:59;35.60;;;17.05;;
66298;SDS011;53098;47.658;8.578;2024-01-10T05:47:24;34.63;;;16.70;;
66298;SDS011;53098;47.658;8.578;2024-01-10T05:49:50;34.30;;;18.85;;
66298;SDS011;53098;47.658;8.578;2024-01-10T05:52:15;37.93;;;17.20;;
66298;SDS011;53098;47.658;8.578;2024-01-10T05:54:40;36.00;;;17.17;;
66298;SDS011;53098;47.658;8.578;2024-01-10T05:57:06;38.87;;;17.63;;
66298;SDS011;53098;47.658;8.578;2024-01-10T05:59:31;39.22;;;18.15;;
66298;SDS011;53098;47.658;8.578;2024-01-10T06:01:56;35.83;;;17.77;;
66298;SDS011;53098;47.658;8.578;2024-01-10T06:04:22;38.05;;;18.40;;
66298;SDS011;53098;47.658;8.578;2024-01-10T06:06:47;39.20;;;18.07;;
66298;SDS011;53098;47.658;8.578;2024-01-10T06:09:12;36.47;;;17.47;;
66298;SDS011;53098;47.658;8.578;2024-01-10T06:11:41;40.83;;;17.60;;
66298;SDS011;53098;47.658;8.578;2024-01-10T06:14:06;34.90;;;18.25;;
66298;SDS011;53098;47.658;8.578;2024-01-10T06:16:32;39.97;;;18.87;;
66298;SDS011;53098;47.658;8.578;2024-01-10T06:18:57;36.90;;;17.53;;
66298;SDS011;53098;47.658;8.578;2024-01-10T06:21:22;35.27;;;16.67;;
66298;SDS011;53098;47.658;8.578;2024-01-10T06:23:48;34.77;;;17.23;;
66298;SDS011;53098;47.658;8.578;2024-01-10T06:26:13;38.03;;;16.97;;
66298;SDS011;53098;47.658;8.578;2024-01-10T06:28:38;36.63;;;17.30;;
66298;SDS011;53098;47.658;8.578;2024-01-10T06:31:03;36.40;;;17.93;;
66298;SDS011;53098;47.658;8.578;2024-01-10T06:33:29;35.50;;;17.85;;
66298;SDS011;53098;47.658;8.578;2024-01-10T06:35:54;37.97;;;18.07;;
66298;SDS011;53098;47.658;8.578;2024-01-10T06:38:19;35.80;;;16.67;;
66298;SDS011;53098;47.658;8.578;2024-01-10T06:40:45;33.93;;;17.00;;
66298;SDS011;53098;47.658;8.578;2024-01-10T06:43:10;37.97;;;17.80;;
66298;SDS011;53098;47.658;8.578;2024-01-10T06:45:35;38.67;;;17.63;;
66298;SDS011;53098;47.658;8.578;2024-01-10T06:48:00;34.43;;;17.30;;
66298;SDS011;53098;47.658;8.578;2024-01-10T06:50:26;32.67;;;17.05;;
66298;SDS011;53098;47.658;8.578;2024-01-10T06:52:51;34.43;;;17.10;;
66298;SDS011;53098;47.658;8.578;2024-01-10T06:55:17;34.03;;;17.70;;
66298;SDS011;53098;47.658;8.578;2024-01-10T06:57:42;34.73;;;16.93;;
66298;SDS011;53098;47.658;8.578;2024-01-10T07:00:07;35.97;;;16.60;;
66298;SDS011;53098;47.658;8.578;2024-01-10T07:02:33;36.13;;;16.67;;
66298;SDS011;53098;47.658;8.578;2024-01-10T07:04:58;38.60;;;17.90;;
66298;SDS011;53098;47.658;8.578;2024-01-10T07:07:23;34.20;;;16.03;;
66298;SDS011;53098;47.658;8.578;2024-01-10T07:09:48;33.60;;;17.40;;
66298;SDS011;53098;47.658;8.578;2024-01-10T07:12:14;35.30;;;17.07;;
66298;SDS011;53098;47.658;8.578;2024-01-10T07:14:39;34.67;;;16.33;;
66298;SDS011;53098;47.658;8.578;2024-01-10T07:17:04;31.30;;;16.77;;
66298;SDS011;53098;47.658;8.578;2024-01-10T07:19:30;35.80;;;16.67;;
66298;SDS011;53098;47.658;8.578;2024-01-10T07:21:55;34.77;;;17.27;;
66298;SDS011;53098;47.658;8.578;2024-01-10T07:24:20;34.13;;;16.63;;
66298;SDS011;53098;47.658;8.578;2024-01-10T07:26:46;38.00;;;15.63;;
66298;SDS011;53098;47.658;8.578;2024-01-10T07:29:11;35.40;;;17.27;;
66298;SDS011;53098;47.658;8.578;2024-01-10T07:31:36;37.37;;;17.97;;
66298;SDS011;53098;47.658;8.578;2024-01-10T07:34:02;35.47;;;16.02;;
66298;SDS011;53098;47.658;8.578;2024-01-10T07:36:27;37.33;;;16.90;;
66298;SDS011;53098;47.658;8.578;2024-01-10T07:38:53;35.55;;;17.08;;
66298;SDS011;53098;47.658;8.578;2024-01-10T07:41:18;33.80;;;17.95;;
66298;SDS011;53098;47.658;8.578;2024-01-10T07:43:44;32.38;;;16.67;;
66298;SDS011;53098;47.658;8.578;2024-01-10T07:46:09;38.88;;;17.70;;
66298;SDS011;53098;47.658;8.578;2024-01-10T07:48:34;35.95;;;17.67;;
66298;SDS011;53098;47.658;8.578;2024-01-10T07:50:59;35.27;;;16.20;;
66298;SDS011;53098;47.658;8.578;2024-01-10T07:53:25;34.67;;;17.30;;
66298;SDS011;53098;47.658;8.578;2024-01-10T07:55:50;35.88;;;17.17;;
66298;SDS011;53098;47.658;8.578;2024-01-10T07:58:15;35.23;;;15.83;;
66298;SDS011;53098;47.658;8.578;2024-01-10T08:00:41;33.20;;;16.17;;
66298;SDS011;53098;47.658;8.578;2024-01-10T08:03:06;38.10;;;18.37;;
66298;SDS011;53098;47.658;8.578;2024-01-10T08:05:31;33.72;;;16.13;;
66298;SDS011;53098;47.658;8.578;2024-01-10T08:07:57;37.23;;;17.90;;
66298;SDS011;53098;47.658;8.578;2024-01-10T08:10:22;33.80;;;15.83;;
66298;SDS011;53098;47.658;8.578;2024-01-10T08:12:47;38.27;;;18.17;;
66298;SDS011;53098;47.658;8.578;2024-01-10T08:15:12;33.70;;;16.20;;
66298;SDS011;53098;47.658;8.578;2024-01-10T08:17:37;36.60;;;17.43;;
66298;SDS011;53098;47.658;8.578;2024-01-10T08:20:04;36.33;;;16.57;;
66298;SDS011;53098;47.658;8.578;2024-01-10T08:22:29;33.10;;;17.08;;
66298;SDS011;53098;47.658;8.578;2024-01-10T08:24:55;37.83;;;17.45;;
66298;SDS011;53098;47.658;8.578;2024-01-10T08:27:20;43.40;;;17.30;;
66298;SDS011;53098;47.658;8.578;2024-01-10T08:29:45;36.83;;;18.47;;
66298;SDS011;53098;47.658;8.578;2024-01-10T08:32:11;39.27;;;18.27;;
66298;SDS011;53098;47.658;8.578;2024-01-10T08:34:36;40.72;;;17.83;;
66298;SDS011;53098;47.658;8.578;2024-01-10T08:37:02;34.30;;;18.38;;
66298;SDS011;53098;47.658;8.578;2024-01-10T08:39:27;40.95;;;18.45;;
66298;SDS011;53098;47.658;8.578;2024-01-10T08:41:52;40.17;;;18.63;;
66298;SDS011;53098;47.658;8.578;2024-01-10T08:44:18;35.20;;;17.73;;
66298;SDS011;53098;47.658;8.578;2024-01-10T08:46:43;35.30;;;16.90;;
66298;SDS011;53098;47.658;8.578;2024-01-10T08:49:08;37.73;;;17.70;;
66298;SDS011;53098;47.658;8.578;2024-01-10T08:51:34;36.77;;;18.73;;
66298;SDS011;53098;47.658;8.578;2024-01-10T08:53:59;42.33;;;19.55;;
66298;SDS011;53098;47.658;8.578;2024-01-10T08:56:25;36.17;;;17.55;;
66298;SDS011;53098;47.658;8.578;2024-01-10T08:58:50;40.37;;;18.00;;
66298;SDS011;53098;47.658;8.578;2024-01-10T09:01:15;44.77;;;19.47;;
66298;SDS011;53098;47.658;8.578;2024-01-10T09:03:41;37.00;;;17.95;;
66298;SDS011;53098;47.658;8.578;2024-01-10T09:06:06;40.05;;;18.90;;
66298;SDS011;53098;47.658;8.578;2024-01-10T09:08:32;35.73;;;18.23;;
66298;SDS011;53098;47.658;8.578;2024-01-10T09:10:57;38.93;;;17.73;;
66298;SDS011;53098;47.658;8.578;2024-01-10T09:13:22;42.77;;;18.60;;
66298;SDS011;53098;47.658;8.578;2024-01-10T09:15:48;37.50;;;19.15;;
66298;SDS011;53098;47.658;8.578;2024-01-10T09:18:13;36.30;;;18.67;;
66298;SDS011;53098;47.658;8.578;2024-01-10T09:20:38;36.17;;;19.10;;
66298;SDS011;53098;47.658;8.578;2024-01-10T09:23:03;36.90;;;17.67;;
66298;SDS011;53098;47.658;8.578;2024-01-10T09:25:29;40.75;;;18.90;;
66298;SDS011;53098;47.658;8.578;2024-01-10T09:27:54;39.97;;;18.63;;
66298;SDS011;53098;47.658;8.578;2024-01-10T09:30:20;40.08;;;18.98;;
66298;SDS011;53098;47.658;8.578;2024-01-10T09:32:45;41.63;;;18.80;;
66298;SDS011;53098;47.658;8.578;2024-01-10T09:35:11;35.88;;;17.92;;
66298;SDS011;53098;47.658;8.578;2024-01-10T09:37:36;37.63;;;17.20;;
66298;SDS011;53098;47.658;8.578;2024-01-10T09:40:02;35.92;;;17.08;;
66298;SDS011;53098;47.658;8.578;2024-01-10T09:42:28;40.33;;;20.05;;
66298;SDS011;53098;47.658;8.578;2024-01-10T09:44:54;41.17;;;18.90;;
66298;SDS011;53098;47.658;8.578;2024-01-10T09:47:20;39.83;;;18.77;;
66298;SDS011;53098;47.658;8.578;2024-01-10T09:49:45;38.63;;;19.55;;
66298;SDS011;53098;47.658;8.578;2024-01-10T09:52:11;37.92;;;18.40;;
66298;SDS011;53098;47.658;8.578;2024-01-10T09:54:40;39.97;;;19.05;;
66298;SDS011;53098;47.658;8.578;2024-01-10T09:57:05;38.70;;;18.23;;
66298;SDS011;53098;47.658;8.578;2024-01-10T09:59:30;38.13;;;18.27;;
66298;SDS011;53098;47.658;8.578;2024-01-10T10:01:56;39.08;;;18.05;;
66298;SDS011;53098;47.658;8.578;2024-01-10T10:04:21;40.83;;;19.33;;
66298;SDS011;53098;47.658;8.578;2024-01-10T10:06:47;38.17;;;18.23;;
66298;SDS011;53098;47.658;8.578;2024-01-10T10:09:12;41.35;;;18.50;;
66298;SDS011;53098;47.658;8.578;2024-01-10T10:11:40;40.55;;;18.10;;
66298;SDS011;53098;47.658;8.578;2024-01-10T10:14:13;37.67;;;18.42;;
66298;SDS011;53098;47.658;8.578;2024-01-10T10:16:38;42.50;;;19.52;;
66298;SDS011;53098;47.658;8.578;2024-01-10T10:19:04;40.65;;;18.83;;
66298;SDS011;53098;47.658;8.578;2024-01-10T10:21:30;42.00;;;18.25;;
66298;SDS011;53098;47.658;8.578;2024-01-10T10:23:59;38.20;;;18.73;;
66298;SDS011;53098;47.658;8.578;2024-01-10T10:26:25;37.08;;;18.60;;
66298;SDS011;53098;47.658;8.578;2024-01-10T10:28:51;38.28;;;19.35;;
66298;SDS011;53098;47.658;8.578;2024-01-10T10:31:17;40.55;;;19.15;;
66298;SDS011;53098;47.658;8.578;2024-01-10T10:33:42;42.88;;;19.55;;
66298;SDS011;53098;47.658;8.578;2024-01-10T10:36:08;39.13;;;18.48;;
66298;SDS011;53098;47.658;8.578;2024-01-10T10:38:33;39.50;;;18.88;;
66298;SDS011;53098;47.658;8.578;2024-01-10T10:40:59;35.78;;;18.35;;
66298;SDS011;53098;47.658;8.578;2024-01-10T10:43:24;35.35;;;16.42;;
66298;SDS011;53098;47.658;8.578;2024-01-10T10:45:50;36.60;;;17.42;;
66298;SDS011;53098;47.658;8.578;2024-01-10T10:48:19;39.88;;;18.50;;
66298;SDS011;53098;47.658;8.578;2024-01-10T10:50:48;37.03;;;18.00;;
66298;SDS011;53098;47.658;8.578;2024-01-10T10:53:15;40.55;;;18.15;;
66298;SDS011;53098;47.658;8.578;2024-01-10T10:55:41;41.13;;;18.88;;
66298;SDS011;53098;47.658;8.578;2024-01-10T10:58:07;38.85;;;18.13;;
66298;SDS011;53098;47.658;8.578;2024-01-10T11:00:33;40.55;;;18.95;;
66298;SDS011;53098;47.658;8.578;2024-01-10T11:02:58;41.78;;;19.48;;
66298;SDS011;53098;47.658;8.578;2024-01-10T11:05:24;42.40;;;19.10;;
66298;SDS011;53098;47.658;8.578;2024-01-10T11:07:51;39.60;;;19.13;;
66298;SDS011;53098;47.658;8.578;2024-01-10T11:10:18;41.63;;;18.65;;
66298;SDS011;53098;47.658;8.578;2024-01-10T11:20:55;37.47;;;17.63;;
66298;SDS011;53098;47.658;8.578;2024-01-10T11:25:53;36.50;;;18.27;;
66298;SDS011;53098;47.658;8.578;2024-01-10T11:28:19;37.92;;;18.77;;
66298;SDS011;53098;47.658;8.578;2024-01-10T11:30:51;44.80;;;18.60;;
66298;SDS011;53098;47.658;8.578;2024-01-10T11:35:44;41.40;;;19.40;;
66298;SDS011;53098;47.658;8.578;2024-01-10T11:38:29;36.83;;;16.80;;
66298;SDS011;53098;47.658;8.578;2024-01-10T11:40:54;41.15;;;18.35;;
66298;SDS011;53098;47.658;8.578;2024-01-10T11:43:21;37.50;;;17.80;;
66298;SDS011;53098;47.658;8.578;2024-01-10T11:45:50;47.63;;;20.43;;
66298;SDS011;53098;47.658;8.578;2024-01-10T11:48:15;41.65;;;18.90;;
66298;SDS011;53098;47.658;8.578;2024-01-10T11:50:41;41.17;;;19.48;;
66298;SDS011;53098;47.658;8.578;2024-01-10T11:53:07;36.45;;;17.15;;
66298;SDS011;53098;47.658;8.578;2024-01-10T11:55:50;34.22;;;16.00;;
66298;SDS011;53098;47.658;8.578;2024-01-10T11:58:16;32.72;;;15.57;;
66298;SDS011;53098;47.658;8.578;2024-01-10T12:00:41;34.13;;;15.00;;
66298;SDS011;53098;47.658;8.578;2024-01-10T12:03:07;36.40;;;16.63;;
66298;SDS011;53098;47.658;8.578;2024-01-10T12:05:34;35.67;;;15.95;;
66298;SDS011;53098;47.658;8.578;2024-01-10T12:07:59;35.38;;;15.43;;
66298;SDS011;53098;47.658;8.578;2024-01-10T12:10:25;35.07;;;16.57;;
66298;SDS011;53098;47.658;8.578;2024-01-10T12:12:51;35.28;;;16.98;;
66298;SDS011;53098;47.658;8.578;2024-01-10T12:15:17;37.25;;;17.13;;
66298;SDS011;53098;47.658;8.578;2024-01-10T12:17:42;38.65;;;16.70;;
66298;SDS011;53098;47.658;8.578;2024-01-10T12:20:08;31.80;;;14.95;;
66298;SDS011;53098;47.658;8.578;2024-01-10T12:22:33;33.40;;;15.20;;
66298;SDS011;53098;47.658;8.578;2024-01-10T12:25:04;36.13;;;16.30;;
66298;SDS011;53098;47.658;8.578;2024-01-10T12:27:29;36.25;;;16.20;;
66298;SDS011;53098;47.658;8.578;2024-01-10T12:29:54;38.80;;;18.33;;
66298;SDS011;53098;47.658;8.578;2024-01-10T12:32:20;38.70;;;17.27;;
66298;SDS011;53098;47.658;8.578;2024-01-10T12:34:46;47.63;;;18.50;;
66298;SDS011;53098;47.658;8.578;2024-01-10T12:37:13;41.67;;;17.57;;
66298;SDS011;53098;47.658;8.578;2024-01-10T12:39:38;38.60;;;17.63;;
66298;SDS011;53098;47.658;8.578;2024-01-10T12:42:03;38.23;;;18.00;;
66298;SDS011;53098;47.658;8.578;2024-01-10T12:44:32;39.35;;;18.20;;
66298;SDS011;53098;47.658;8.578;2024-01-10T12:46:57;34.65;;;16.02;;
66298;SDS011;53098;47.658;8.578;2024-01-10T12:49:23;38.53;;;17.52;;
66298;SDS011;53098;47.658;8.578;2024-01-10T12:51:49;42.00;;;17.10;;
66298;SDS011;53098;47.658;8.578;2024-01-10T12:54:15;39.53;;;17.23;;
66298;SDS011;53098;47.658;8.578;2024-01-10T12:56:40;36.50;;;16.48;;
66298;SDS011;53098;47.658;8.578;2024-01-10T12:59:05;38.93;;;16.57;;
66298;SDS011;53098;47.658;8.578;2024-01-10T13:01:31;37.77;;;16.83;;
66298;SDS011;53098;47.658;8.578;2024-01-10T13:03:56;37.17;;;18.00;;
66298;SDS011;53098;47.658;8.578;2024-01-10T13:06:21;38.10;;;17.70;;
66298;SDS011;53098;47.658;8.578;2024-01-10T13:08:50;37.38;;;16.30;;
66298;SDS011;53098;47.658;8.578;2024-01-10T13:11:15;35.55;;;16.63;;
66298;SDS011;53098;47.658;8.578;2024-01-10T13:13:41;38.42;;;17.85;;
66298;SDS011;53098;47.658;8.578;2024-01-10T13:16:06;39.40;;;16.85;;
66298;SDS011;53098;47.658;8.578;2024-01-10T13:18:32;34.88;;;16.40;;
66298;SDS011;53098;47.658;8.578;2024-01-10T13:20:57;34.95;;;15.98;;
66298;SDS011;53098;47.658;8.578;2024-01-10T13:23:23;35.08;;;15.20;;
66298;SDS011;53098;47.658;8.578;2024-01-10T13:25:49;37.63;;;16.08;;
66298;SDS011;53098;47.658;8.578;2024-01-10T13:28:14;41.30;;;17.60;;
66298;SDS011;53098;47.658;8.578;2024-01-10T13:30:40;35.67;;;17.02;;
66298;SDS011;53098;47.658;8.578;2024-01-10T13:33:06;35.85;;;16.20;;
66298;SDS011;53098;47.658;8.578;2024-01-10T13:35:31;33.63;;;15.95;;
66298;SDS011;53098;47.658;8.578;2024-01-10T13:37:57;35.47;;;16.17;;
66298;SDS011;53098;47.658;8.578;2024-01-10T13:40:22;39.03;;;17.48;;
66298;SDS011;53098;47.658;8.578;2024-01-10T13:42:48;37.00;;;16.60;;
66298;SDS011;53098;47.658;8.578;2024-01-10T13:45:13;33.95;;;14.90;;
66298;SDS011;53098;47.658;8.578;2024-01-10T13:47:39;34.35;;;15.13;;
66298;SDS011;53098;47.658;8.578;2024-01-10T13:50:05;35.10;;;16.60;;
66298;SDS011;53098;47.658;8.578;2024-01-10T13:52:34;33.45;;;14.57;;
66298;SDS011;53098;47.658;8.578;2024-01-10T13:55:00;31.92;;;14.50;;
66298;SDS011;53098;47.658;8.578;2024-01-10T13:57:26;33.75;;;15.50;;
66298;SDS011;53098;47.658;8.578;2024-01-10T13:59:51;32.70;;;15.02;;
66298;SDS011;53098;47.658;8.578;2024-01-10T14:02:16;35.28;;;15.40;;
66298;SDS011;53098;47.658;8.578;2024-01-10T14:04:42;35.72;;;15.45;;
66298;SDS011;53098;47.658;8.578;2024-01-10T14:07:07;32.97;;;16.15;;
66298;SDS011;53098;47.658;8.578;2024-01-10T14:09:33;37.50;;;15.85;;
66298;SDS011;53098;47.658;8.578;2024-01-10T14:11:58;34.25;;;16.02;;
66298;SDS011;53098;47.658;8.578;2024-01-10T14:14:24;32.97;;;14.75;;
66298;SDS011;53098;47.658;8.578;2024-01-10T14:16:49;38.75;;;16.25;;
66298;SDS011;53098;47.658;8.578;2024-01-10T14:19:15;34.00;;;17.30;;
66298;SDS011;53098;47.658;8.578;2024-01-10T14:21:40;34.72;;;15.43;;
66298;SDS011;53098;47.658;8.578;2024-01-10T14:24:06;35.33;;;16.30;;
66298;SDS011;53098;47.658;8.578;2024-01-10T14:26:32;39.30;;;17.95;;